createdAt,value
2019-05-09T00:02:14.068Z,2.50
2019-05-09T00:04:41.405Z,2.77
2019-05-09T00:07:08.693Z,2.40
2019-05-09T00:09:36.037Z,2.23
2019-05-09T00:12:03.828Z,2.50
2019-05-09T00:14:31.252Z,3.13
2019-05-09T00:16:58.546Z,2.53
2019-05-09T00:19:25.812Z,2.23
2019-05-09T00:21:54.749Z,3.00
2019-05-09T00:24:23.845Z,2.43
2019-05-09T00:26:53.259Z,2.23
2019-05-09T00:29:38.123Z,2.67
2019-05-09T00:32:09.956Z,2.50
2019-05-09T00:34:55.181Z,4.33
2019-05-09T00:37:24.088Z,3.00
2019-05-09T00:39:53.219Z,2.70
2019-05-09T00:42:20.369Z,2.50
2019-05-09T00:44:53.293Z,2.10
2019-05-09T00:47:25.222Z,3.13
2019-05-09T00:49:54.200Z,2.87
2019-05-09T00:52:23.469Z,2.70
2019-05-09T00:54:53.011Z,2.73
2019-05-09T00:57:34.620Z,3.47
2019-05-09T01:00:14.183Z,2.33
2019-05-09T01:02:39.912Z,2.10
2019-05-09T01:05:07.353Z,2.60
2019-05-09T01:07:34.732Z,2.63
2019-05-09T01:10:04.241Z,2.40
2019-05-09T01:12:30.994Z,2.40
2019-05-09T01:14:58.297Z,2.40
2019-05-09T01:17:25.561Z,3.37
2019-05-09T01:19:53.855Z,2.77
2019-05-09T01:22:23.539Z,2.27
2019-05-09T01:24:50.352Z,2.20
2019-05-09T01:27:17.685Z,2.47
2019-05-09T01:29:48.078Z,2.93
2019-05-09T01:32:15.609Z,3.17
2019-05-09T01:34:43.686Z,2.60
2019-05-09T01:37:14.092Z,13.10
2019-05-09T01:39:41.136Z,2.50
2019-05-09T01:42:08.400Z,2.43
2019-05-09T01:44:35.764Z,17.13
2019-05-09T01:47:03.959Z,2.53
2019-05-09T01:49:33.889Z,3.43
2019-05-09T01:52:00.611Z,2.50
2019-05-09T01:54:29.602Z,2.40
2019-05-09T01:56:56.881Z,2.50
2019-05-09T01:59:24.425Z,2.70
2019-05-09T02:01:54.053Z,3.50
2019-05-09T02:04:21.241Z,2.83
2019-05-09T02:06:48.605Z,3.00
2019-05-09T02:09:15.870Z,2.90
2019-05-09T02:11:45.633Z,4.33
2019-05-09T02:14:14.692Z,2.80
2019-05-09T02:16:49.736Z,3.00
2019-05-09T02:19:18.756Z,2.97
2019-05-09T02:21:46.022Z,3.83
2019-05-09T02:24:14.061Z,2.80
2019-05-09T02:26:43.745Z,2.73
2019-05-09T02:29:10.693Z,4.67
2019-05-09T02:31:38.094Z,2.80
2019-05-09T02:34:05.441Z,2.83
2019-05-09T02:36:32.763Z,3.20
2019-05-09T02:39:00.073Z,2.67
2019-05-09T02:41:28.636Z,3.40
2019-05-09T02:43:58.581Z,2.80
2019-05-09T02:46:29.456Z,3.00
2019-05-09T02:48:56.459Z,4.10
2019-05-09T02:51:24.825Z,3.37
2019-05-09T02:53:52.337Z,2.97
2019-05-09T02:56:19.641Z,3.27
2019-05-09T02:58:51.361Z,3.50
2019-05-09T03:01:23.125Z,3.10
2019-05-09T03:03:50.464Z,3.00
2019-05-09T03:06:19.576Z,2.50
2019-05-09T03:08:49.143Z,3.37
2019-05-09T03:11:18.564Z,4.47
2019-05-09T03:13:44.812Z,3.33
2019-05-09T03:16:13.812Z,3.40
2019-05-09T03:18:41.157Z,2.93
2019-05-09T03:21:21.950Z,3.60
2019-05-09T03:23:49.224Z,3.30
2019-05-09T03:26:19.383Z,3.17
2019-05-09T03:28:59.111Z,3.03
2019-05-09T03:31:29.896Z,3.73
2019-05-09T03:33:59.538Z,2.70
2019-05-09T03:36:28.138Z,3.23
2019-05-09T03:38:57.716Z,3.00
2019-05-09T03:41:24.561Z,4.17
2019-05-09T03:43:51.977Z,3.73
2019-05-09T03:46:20.881Z,5.30
2019-05-09T03:48:49.809Z,3.23
2019-05-09T03:51:18.384Z,3.13
2019-05-09T03:53:48.232Z,2.90
2019-05-09T03:56:18.160Z,13.23
2019-05-09T03:58:47.427Z,5.47
2019-05-09T04:01:14.529Z,3.17
2019-05-09T04:03:41.901Z,6.80
2019-05-09T04:06:09.204Z,3.77
2019-05-09T04:08:37.629Z,3.10
2019-05-09T04:11:05.259Z,3.10
2019-05-09T04:13:34.210Z,3.10
2019-05-09T04:16:01.478Z,3.33
2019-05-09T04:18:28.757Z,3.20
2019-05-09T04:20:57.307Z,3.33
2019-05-09T04:23:26.960Z,3.90
2019-05-09T04:26:01.774Z,3.87
2019-05-09T04:28:29.082Z,3.60
2019-05-09T04:30:58.115Z,3.40
2019-05-09T04:33:25.345Z,3.27
2019-05-09T04:35:52.663Z,3.83
2019-05-09T04:38:19.933Z,3.53
2019-05-09T04:40:48.865Z,3.70
2019-05-09T04:43:21.397Z,3.70
2019-05-09T04:45:52.969Z,3.23
2019-05-09T04:48:31.783Z,3.50
2019-05-09T04:50:59.822Z,4.53
2019-05-09T04:53:28.571Z,4.43
2019-05-09T04:55:58.051Z,3.90
2019-05-09T04:58:27.403Z,4.00
2019-05-09T05:01:01.944Z,5.07
2019-05-09T05:03:29.200Z,4.50
2019-05-09T05:05:58.615Z,3.87
2019-05-09T05:08:25.474Z,5.07
2019-05-09T05:10:52.749Z,4.90
2019-05-09T05:13:26.352Z,5.13
2019-05-09T05:15:49.022Z,4.97
2019-05-09T05:18:17.413Z,5.60
2019-05-09T05:20:45.288Z,5.27
2019-05-09T05:23:20.522Z,4.77
2019-05-09T05:25:47.809Z,4.57
2019-05-09T05:28:15.083Z,3.97
2019-05-09T05:30:42.405Z,4.30
2019-05-09T05:33:27.856Z,4.13
2019-05-09T05:35:57.405Z,4.13
2019-05-09T05:38:24.837Z,4.03
2019-05-09T05:40:52.133Z,4.70
2019-05-09T05:43:19.489Z,5.03
2019-05-09T05:45:48.414Z,4.23
2019-05-09T05:48:17.586Z,5.00
2019-05-09T05:50:44.989Z,4.40
2019-05-09T05:53:12.273Z,4.80
2019-05-09T05:55:39.557Z,7.93
2019-05-09T05:58:08.601Z,4.30
2019-05-09T06:00:37.730Z,6.10
2019-05-09T06:03:05.169Z,5.20
2019-05-09T06:05:32.506Z,5.03
2019-05-09T06:07:59.765Z,5.97
2019-05-09T06:10:29.024Z,7.03
2019-05-09T06:12:57.562Z,5.93
2019-05-09T06:15:24.973Z,5.17
2019-05-09T06:17:52.269Z,5.37
2019-05-09T06:20:19.610Z,6.67
2019-05-09T06:22:47.702Z,6.80
2019-05-09T06:25:20.163Z,7.30
2019-05-09T06:27:44.410Z,6.70
2019-05-09T06:30:11.845Z,7.53
2019-05-09T06:32:39.208Z,7.30
2019-05-09T06:35:08.372Z,9.40
2019-05-09T06:37:35.641Z,6.93
2019-05-09T06:40:03.289Z,6.57
2019-05-09T06:42:30.630Z,6.03
2019-05-09T06:45:17.975Z,6.47
2019-05-09T06:47:48.689Z,5.90
2019-05-09T06:50:18.467Z,7.30
2019-05-09T06:52:47.860Z,9.10
2019-05-09T06:55:17.214Z,7.80
2019-05-09T06:57:44.212Z,7.97
2019-05-09T07:00:28.307Z,7.40
2019-05-09T07:02:58.390Z,7.97
2019-05-09T07:05:44.168Z,7.20
2019-05-09T07:08:18.269Z,7.07
2019-05-09T07:10:45.161Z,7.27
2019-05-09T07:13:12.433Z,7.30
2019-05-09T07:15:39.720Z,8.80
2019-05-09T07:18:08.104Z,8.20
2019-05-09T07:20:37.719Z,7.50
2019-05-09T07:23:04.680Z,6.93
2019-05-09T07:25:51.465Z,7.87
2019-05-09T07:28:18.809Z,7.90
2019-05-09T07:30:59.861Z,7.17
2019-05-09T07:33:28.792Z,7.43
2019-05-09T07:35:58.052Z,7.30
2019-05-09T07:38:32.584Z,7.57
2019-05-09T07:41:00.606Z,7.63
2019-05-09T07:43:28.241Z,6.67
2019-05-09T07:46:08.537Z,7.97
2019-05-09T07:48:38.115Z,10.07
2019-05-09T07:51:07.871Z,9.30
2019-05-09T07:53:34.753Z,10.23
2019-05-09T07:56:02.024Z,9.00
2019-05-09T07:58:29.325Z,10.50
2019-05-09T08:01:01.254Z,9.10
2019-05-09T08:03:27.539Z,9.57
2019-05-09T08:05:54.797Z,8.27
2019-05-09T08:08:22.146Z,9.93
2019-05-09T08:10:49.405Z,8.03
2019-05-09T08:13:18.178Z,7.57
2019-05-09T08:15:47.644Z,9.27
2019-05-09T08:18:14.702Z,6.60
2019-05-09T08:20:42.033Z,5.80
2019-05-09T08:23:09.398Z,6.20
2019-05-09T08:25:38.280Z,6.63
2019-05-09T08:28:05.723Z,5.50
2019-05-09T08:30:36.303Z,10.07
2019-05-09T08:33:02.110Z,9.70
2019-05-09T08:35:29.375Z,7.93
2019-05-09T08:37:58.315Z,7.03
2019-05-09T08:40:28.475Z,6.90
2019-05-09T08:42:54.913Z,6.50
2019-05-09T08:45:27.598Z,6.00
2019-05-09T08:47:51.269Z,5.07
2019-05-09T08:50:32.605Z,6.13
2019-05-09T08:52:59.873Z,5.77
2019-05-09T08:55:27.862Z,5.77
2019-05-09T08:57:55.397Z,6.50
2019-05-09T09:00:22.745Z,5.53
2019-05-09T09:02:50.101Z,5.63
2019-05-09T09:05:18.748Z,4.90
2019-05-09T09:07:48.727Z,4.87
2019-05-09T09:10:15.312Z,6.60
2019-05-09T09:12:42.680Z,5.70
2019-05-09T09:15:10.374Z,5.43
2019-05-09T09:17:38.592Z,5.47
2019-05-09T09:20:07.751Z,7.03
2019-05-09T09:22:37.381Z,3.63
2019-05-09T09:25:04.914Z,3.90
2019-05-09T09:27:33.240Z,4.23
2019-05-09T09:30:16.485Z,3.40
2019-05-09T09:32:29.548Z,4.80
2019-05-09T09:34:58.770Z,5.03
2019-05-09T09:37:29.572Z,9.17
2019-05-09T09:39:54.805Z,6.33
2019-05-09T09:42:22.159Z,10.63
2019-05-09T09:44:49.546Z,14.83
2019-05-09T09:47:22.290Z,11.20
2019-05-09T09:49:48.753Z,9.63
2019-05-09T09:52:14.948Z,9.20
2019-05-09T09:54:42.300Z,10.10
2019-05-09T09:57:09.929Z,8.57
2019-05-09T09:59:44.949Z,9.00
2019-05-09T10:02:13.860Z,6.37
2019-05-09T10:04:41.130Z,6.47
2019-05-09T10:07:09.109Z,6.67
2019-05-09T10:09:36.420Z,6.27
2019-05-09T10:12:03.767Z,6.03
2019-05-09T10:14:41.852Z,5.97
2019-05-09T10:17:10.758Z,5.83
2019-05-09T10:19:39.690Z,5.93
2019-05-09T10:22:08.621Z,5.20
2019-05-09T10:24:35.953Z,10.77
2019-05-09T10:27:08.716Z,6.50
2019-05-09T10:29:38.555Z,7.30
2019-05-09T10:32:08.934Z,6.87
2019-05-09T10:34:37.811Z,7.57
2019-05-09T10:37:07.526Z,7.43
2019-05-09T10:39:34.692Z,8.27
2019-05-09T10:42:03.608Z,6.60
2019-05-09T10:44:37.391Z,7.53
2019-05-09T10:47:08.684Z,7.53
2019-05-09T10:49:37.964Z,10.07
2019-05-09T10:52:05.344Z,8.03
2019-05-09T10:54:32.617Z,6.33
2019-05-09T10:56:59.881Z,7.23
2019-05-09T10:59:27.179Z,7.63
2019-05-09T11:01:54.613Z,7.07
2019-05-09T11:04:21.970Z,8.00
2019-05-09T11:06:49.287Z,8.17
2019-05-09T11:09:18.270Z,7.77
2019-05-09T11:11:48.168Z,8.60
2019-05-09T11:14:31.621Z,6.73
2019-05-09T11:16:49.042Z,5.07
2019-05-09T11:19:12.721Z,3.50
2019-05-09T11:21:40.006Z,3.17
2019-05-09T11:24:08.343Z,2.77
2019-05-09T11:26:36.036Z,2.63
2019-05-09T11:29:03.441Z,3.87
2019-05-09T11:31:30.703Z,2.60
2019-05-09T11:33:58.360Z,2.93
2019-05-09T11:36:25.624Z,2.17
2019-05-09T11:38:52.951Z,2.63
2019-05-09T11:41:20.252Z,2.93
2019-05-09T11:43:48.512Z,4.50
2019-05-09T11:46:18.075Z,3.17
2019-05-09T11:48:45.497Z,3.33
2019-05-09T11:51:13.033Z,4.00
2019-05-09T11:53:40.371Z,3.20
2019-05-09T11:56:08.277Z,4.43
2019-05-09T11:58:37.821Z,3.97
2019-05-09T12:01:04.682Z,3.40
2019-05-09T12:03:31.961Z,4.23
2019-05-09T12:05:59.220Z,3.07
2019-05-09T12:08:26.521Z,13.43
2019-05-09T12:10:53.861Z,6.10
2019-05-09T12:13:21.125Z,5.83
2019-05-09T12:15:48.992Z,4.13
2019-05-09T12:18:16.456Z,2.40
2019-05-09T12:20:43.728Z,2.13
2019-05-09T12:23:11.181Z,2.57
2019-05-09T12:25:38.818Z,2.37
2019-05-09T12:28:07.852Z,2.47
2019-05-09T12:30:35.285Z,2.20
2019-05-09T12:33:02.558Z,2.23
2019-05-09T12:35:29.869Z,2.07
2019-05-09T12:37:57.133Z,2.20
2019-05-09T12:40:24.402Z,2.20
2019-05-09T12:42:51.689Z,1.90
2019-05-09T12:45:19.022Z,2.40
2019-05-09T12:47:46.290Z,2.20
2019-05-09T12:50:13.667Z,2.17
2019-05-09T12:52:41.103Z,2.23
2019-05-09T12:55:08.600Z,2.20
2019-05-09T12:57:38.434Z,2.30
2019-05-09T13:00:06.177Z,2.27
2019-05-09T13:02:33.529Z,2.73
2019-05-09T13:05:00.807Z,2.40
2019-05-09T13:07:29.761Z,4.33
2019-05-09T13:09:58.244Z,2.30
2019-05-09T13:12:28.919Z,2.73
2019-05-09T13:14:54.817Z,2.53
2019-05-09T13:17:33.122Z,2.57
2019-05-09T13:20:00.385Z,3.40
2019-05-09T13:22:28.387Z,2.87
2019-05-09T13:24:55.826Z,2.97
2019-05-09T13:27:23.090Z,3.40
2019-05-09T13:29:50.429Z,2.40
2019-05-09T13:32:18.094Z,1.90
2019-05-09T13:34:45.650Z,1.80
2019-05-09T13:37:13.017Z,2.33
2019-05-09T13:39:41.197Z,2.27
2019-05-09T13:42:08.601Z,2.33
2019-05-09T13:44:40.849Z,2.03
2019-05-09T13:47:05.608Z,2.40
2019-05-09T13:49:32.880Z,2.23
2019-05-09T13:52:04.748Z,2.03
2019-05-09T13:54:29.249Z,2.33
2019-05-09T13:57:00.364Z,1.50
2019-05-09T13:59:25.574Z,2.00
2019-05-09T14:01:52.889Z,4.93
2019-05-09T14:04:20.153Z,1.93
2019-05-09T14:06:48.710Z,1.57
2019-05-09T14:09:16.324Z,3.40
2019-05-09T14:11:43.646Z,1.90
2019-05-09T14:14:10.909Z,2.00
2019-05-09T14:16:39.028Z,1.30
2019-05-09T14:19:26.246Z,1.50
2019-05-09T14:21:35.549Z,1.60
2019-05-09T14:24:14.158Z,1.50
2019-05-09T14:26:31.900Z,2.90
2019-05-09T14:28:59.173Z,1.27
2019-05-09T14:31:29.914Z,1.13
2019-05-09T14:33:55.440Z,1.40
2019-05-09T14:36:22.700Z,1.00
2019-05-09T14:38:50.021Z,3.60
2019-05-09T14:41:19.223Z,2.80
2019-05-09T14:43:48.271Z,1.07
2019-05-09T14:46:18.016Z,1.13
2019-05-09T14:48:45.021Z,0.90
2019-05-09T14:51:12.386Z,1.40
2019-05-09T14:53:39.683Z,1.27
2019-05-09T14:56:08.787Z,1.50
2019-05-09T14:58:38.586Z,1.63
2019-05-09T15:01:08.365Z,1.77
2019-05-09T15:03:34.866Z,1.50
2019-05-09T15:06:02.242Z,2.50
2019-05-09T15:08:29.513Z,1.50
2019-05-09T15:10:58.214Z,2.40
2019-05-09T15:13:28.381Z,1.10
2019-05-09T15:15:54.713Z,2.13
2019-05-09T15:18:22.013Z,1.87
2019-05-09T15:20:49.278Z,1.43
2019-05-09T15:23:16.998Z,2.57
2019-05-09T15:25:44.934Z,1.93
2019-05-09T15:28:12.285Z,1.20
2019-05-09T15:30:39.614Z,2.67
2019-05-09T15:33:08.345Z,1.40
2019-05-09T15:35:35.746Z,1.80
2019-05-09T15:38:03.018Z,1.63
2019-05-09T15:40:30.377Z,3.77
2019-05-09T15:42:58.766Z,2.20
2019-05-09T15:45:28.539Z,1.57
2019-05-09T15:47:58.183Z,1.90
2019-05-09T15:50:25.075Z,2.33
2019-05-09T15:52:52.340Z,3.70
2019-05-09T15:55:19.629Z,1.83
2019-05-09T15:57:48.550Z,1.63
2019-05-09T16:00:18.777Z,1.67
2019-05-09T16:02:48.251Z,1.60
2019-05-09T16:05:14.429Z,4.13
2019-05-09T16:07:41.697Z,1.57
2019-05-09T16:10:09.372Z,1.53
2019-05-09T16:12:38.397Z,1.33
2019-05-09T16:15:07.790Z,3.20
2019-05-09T16:17:34.957Z,1.20
2019-05-09T16:20:02.298Z,1.83
2019-05-09T16:22:29.689Z,2.20
2019-05-09T16:24:56.992Z,4.20
2019-05-09T16:27:24.283Z,1.37
2019-05-09T16:29:51.557Z,1.50
2019-05-09T16:32:18.942Z,1.57
2019-05-09T16:34:46.213Z,2.87
2019-05-09T16:37:13.476Z,1.60
2019-05-09T16:39:40.906Z,1.43
2019-05-09T16:42:08.172Z,1.77
2019-05-09T16:44:37.561Z,1.90
2019-05-09T16:47:04.609Z,1.70
2019-05-09T16:49:32.473Z,4.17
2019-05-09T16:52:00.367Z,2.73
2019-05-09T16:54:30.204Z,2.00
2019-05-09T16:56:59.854Z,2.70
2019-05-09T16:59:28.102Z,1.47
2019-05-09T17:01:57.700Z,1.70
2019-05-09T17:04:24.657Z,1.40
2019-05-09T17:06:52.000Z,1.50
2019-05-09T17:09:19.326Z,1.97
2019-05-09T17:11:48.034Z,2.20
2019-05-09T17:14:15.538Z,4.27
2019-05-09T17:16:42.902Z,8.73
2019-05-09T17:19:10.170Z,1.90
2019-05-09T17:21:51.123Z,2.23
2019-05-09T17:24:22.445Z,1.80
2019-05-09T17:26:49.717Z,2.37
2019-05-09T17:29:18.497Z,1.80
2019-05-09T17:31:48.572Z,3.20
2019-05-09T17:34:17.775Z,3.43
2019-05-09T17:36:44.443Z,3.00
2019-05-09T17:39:11.711Z,1.20
2019-05-09T17:41:39.122Z,1.57
2019-05-09T17:44:07.697Z,2.37
2019-05-09T17:46:35.168Z,1.60
2019-05-09T17:49:02.509Z,1.53
2019-05-09T17:51:33.909Z,1.70
2019-05-09T17:53:58.862Z,4.13
2019-05-09T17:56:26.141Z,3.50
2019-05-09T17:58:53.622Z,4.50
2019-05-09T18:01:20.885Z,3.00
2019-05-09T18:03:48.322Z,4.20
2019-05-09T18:06:15.661Z,8.13
2019-05-09T18:08:42.996Z,3.33
2019-05-09T18:11:12.945Z,6.20
2019-05-09T18:13:39.296Z,4.20
2019-05-09T18:16:06.654Z,10.23
2019-05-09T18:18:33.923Z,9.30
2019-05-09T18:21:01.317Z,11.90
2019-05-09T18:23:28.602Z,9.50
2019-05-09T18:25:58.327Z,6.20
2019-05-09T18:28:29.367Z,6.13
2019-05-09T18:30:58.480Z,6.90
2019-05-09T18:33:27.678Z,4.07
2019-05-09T18:35:54.967Z,3.20
2019-05-09T18:38:24.101Z,6.70
2019-05-09T18:40:51.418Z,5.47
2019-05-09T18:43:18.696Z,4.77
2019-05-09T18:45:49.121Z,5.07
2019-05-09T18:48:18.565Z,4.97
2019-05-09T18:50:45.633Z,4.13
2019-05-09T18:53:12.905Z,5.77
2019-05-09T18:55:40.257Z,6.97
2019-05-09T18:58:07.597Z,3.40
2019-05-09T19:00:34.905Z,7.43
2019-05-09T19:03:02.168Z,3.97
2019-05-09T19:05:29.708Z,2.57
2019-05-09T19:08:00.136Z,3.10
2019-05-09T19:10:27.478Z,8.07
2019-05-09T19:12:54.818Z,3.13
2019-05-09T19:15:23.837Z,4.03
2019-05-09T19:18:09.055Z,2.90
2019-05-09T19:20:40.508Z,3.37
2019-05-09T19:23:07.865Z,3.33
2019-05-09T19:25:35.243Z,8.90
2019-05-09T19:28:02.728Z,10.33
2019-05-09T19:30:30.162Z,3.43
2019-05-09T19:32:57.432Z,3.10
2019-05-09T19:35:26.378Z,2.53
2019-05-09T19:37:53.650Z,2.43
2019-05-09T19:40:20.922Z,3.50
2019-05-09T19:42:49.933Z,3.50
2019-05-09T19:45:17.368Z,2.10
2019-05-09T19:47:44.654Z,2.17
2019-05-09T19:50:12.260Z,2.67
2019-05-09T19:52:42.229Z,9.63
2019-05-09T19:55:11.050Z,3.50
2019-05-09T19:57:38.337Z,2.70
2019-05-09T20:00:06.581Z,2.70
2019-05-09T20:02:36.772Z,2.93
2019-05-09T20:05:07.529Z,2.40
2019-05-09T20:07:34.805Z,4.67
2019-05-09T20:10:11.127Z,3.07
2019-05-09T20:12:49.118Z,5.40
2019-05-09T20:15:18.067Z,4.10
2019-05-09T20:17:45.422Z,4.20
2019-05-09T20:20:12.757Z,3.47
2019-05-09T20:22:52.059Z,3.33
2019-05-09T20:25:09.101Z,2.93
2019-05-09T20:27:36.392Z,3.40
2019-05-09T20:30:05.302Z,3.40
2019-05-09T20:32:32.566Z,3.97
2019-05-09T20:34:59.970Z,2.70
2019-05-09T20:37:27.425Z,2.90
2019-05-09T20:39:54.875Z,2.90
2019-05-09T20:42:22.352Z,2.67
2019-05-09T20:44:49.805Z,2.70
2019-05-09T20:47:17.254Z,2.03
2019-05-09T20:49:44.752Z,2.07
2019-05-09T20:52:12.222Z,3.80
2019-05-09T20:54:39.668Z,1.90
2019-05-09T20:57:07.256Z,2.00
2019-05-09T20:59:34.701Z,5.00
2019-05-09T21:02:02.234Z,5.93
2019-05-09T21:04:29.949Z,2.60
2019-05-09T21:06:57.447Z,2.53
2019-05-09T21:09:24.965Z,3.93
2019-05-09T21:11:52.471Z,3.70
2019-05-09T21:14:19.988Z,2.90
2019-05-09T21:16:47.452Z,3.47
2019-05-09T21:19:15.275Z,2.50
2019-05-09T21:21:42.794Z,2.53
2019-05-09T21:24:10.275Z,2.20
2019-05-09T21:26:37.738Z,5.53
2019-05-09T21:29:05.258Z,4.37
2019-05-09T21:31:33.174Z,2.80
2019-05-09T21:34:00.640Z,2.70
2019-05-09T21:36:27.979Z,3.10
2019-05-09T21:38:55.329Z,3.13
2019-05-09T21:41:22.601Z,3.27
2019-05-09T21:43:49.898Z,2.73
2019-05-09T21:46:17.166Z,3.37
2019-05-09T21:48:44.503Z,2.73
2019-05-09T21:51:11.805Z,2.67
2019-05-09T21:53:41.194Z,2.80
2019-05-09T21:56:08.336Z,4.17
2019-05-09T21:58:35.624Z,6.00
2019-05-09T22:01:03.201Z,3.60
2019-05-09T22:03:30.600Z,3.60
2019-05-09T22:05:57.964Z,3.47
2019-05-09T22:08:25.242Z,3.33
2019-05-09T22:10:52.591Z,3.90
2019-05-09T22:13:19.964Z,3.73
2019-05-09T22:15:47.292Z,3.97
2019-05-09T22:18:14.572Z,8.00
2019-05-09T22:20:41.849Z,5.37
2019-05-09T22:23:09.108Z,4.33
2019-05-09T22:25:36.408Z,5.73
2019-05-09T22:28:05.069Z,4.27
2019-05-09T22:30:32.333Z,5.17
2019-05-09T22:32:59.629Z,3.57
2019-05-09T22:35:26.952Z,4.33
2019-05-09T22:37:54.230Z,4.03
2019-05-09T22:40:21.871Z,6.63
2019-05-09T22:42:49.133Z,4.57
2019-05-09T22:45:16.483Z,5.97
2019-05-09T22:47:43.888Z,3.80
2019-05-09T22:50:11.346Z,5.60
2019-05-09T22:52:38.713Z,4.10
2019-05-09T22:55:06.350Z,3.97
2019-05-09T22:57:33.612Z,3.30
2019-05-09T23:00:01.041Z,6.30
2019-05-09T23:02:28.335Z,5.10
2019-05-09T23:04:55.602Z,4.00
2019-05-09T23:07:22.880Z,4.17
2019-05-09T23:09:50.155Z,4.47
2019-05-09T23:12:17.461Z,3.67
2019-05-09T23:14:45.003Z,5.67
2019-05-09T23:17:12.269Z,9.50
2019-05-09T23:19:39.561Z,4.20
2019-05-09T23:22:07.001Z,4.33
2019-05-09T23:24:36.050Z,4.10
2019-05-09T23:27:03.546Z,5.43
2019-05-09T23:29:30.816Z,4.60
2019-05-09T23:32:17.915Z,4.03
2019-05-09T23:34:45.192Z,6.80
2019-05-09T23:37:12.565Z,4.60
2019-05-09T23:39:41.492Z,3.77
2019-05-09T23:42:08.828Z,5.07
2019-05-09T23:44:36.102Z,5.60
2019-05-09T23:47:03.404Z,4.60
2019-05-09T23:49:30.669Z,4.20
2019-05-09T23:51:57.932Z,4.03
2019-05-09T23:54:46.452Z,4.03
2019-05-09T23:57:30.679Z,11.87
